Wolvega, Netherlands
Current Conditions -  °F | °C
As of 7:55 AM on Thursday 23 Oct 2014 (Local Time) from EHLW Reporting Station
Haze Haze  
Wind Chill: 11°   Ceiling: 2400
Heat Index: 11°   Visibility: 5mi
Dew Point: 11°   Wind: 6mph
Humidity: 100%   Direction: 200°SSW
Pressure: 30.09"   Gusts: NA
Location:  52.88°N, 6°E
Report Text: EHLW 230555Z AUTO 20005KT 8000 BR OVC024 11/11 Q1019 WHT
Loading
Personal Weather Stations






























Interactive Weather Map
Tropical Storm Tracking
New forecast layout! Learn more

10-Day Weather Forecast

Advertisements
Track Severe Weather on mobile